Time;durP1;ratioP1;P1;durP2;ratioP2;P2;SDS_P1;SDS_P2;PMS_P1;PMS_P2;Temp;Humidity;BMP_temperature;BMP_pressure;BME280_temperature;BME280_humidity;BME280_pressure;Samples;Min_cycle;Max_cycle;Signal;HPM_P1;HPM_P2
2021/10/21 00:00:40;;;;;;;;;;;;;;;;;;2100825;28;1259;-85
2021/10/21 00:01:42;;;;;;;;;;;;;;;;;;2100984;28;1234;-86
2021/10/21 00:02:42;;;;;;;;;;;;;;;;;;2109502;28;1477;-86
2021/10/21 00:03:44;;;;;;;;;;;;;;;;;;2108939;28;1292;-86
2021/10/21 00:04:45;;;;;;;;;;;;;;;;;;2100874;28;1264;-86
2021/10/21 00:05:49;;;;;;;;;;;;;;;;;;2100458;28;1279;-86
2021/10/21 00:06:50;;;;;;;;;;;;;;;;;;2101142;28;1203;-85
2021/10/21 00:07:52;;;;;;;;;;;;;;;;;;2092646;28;1913;-86
2021/10/21 00:08:53;;;;;;;;;;;;;;;;;;2101070;28;1374;-86
2021/10/21 00:09:56;;;;;;;;;;;;;;;;;;2100920;28;1365;-85
2021/10/21 00:10:57;;;;;;;;;;;;;;;;;;2109395;28;1087;-86
2021/10/21 00:12:00;;;;;;;;;;;;;;;;;;2101173;28;1368;-85
2021/10/21 00:13:01;;;;;;;;;;;;;;;;;;2092378;28;2005;-86
2021/10/21 00:14:04;;;;;;;;;;;;;;;;;;2092438;28;1306;-85
2021/10/21 00:15:05;;;;;;;;;;;;;;;;;;2092201;28;1303;-86
2021/10/21 00:16:08;;;;;;;;;;;;;;;;;;2098189;28;1355;-86
2021/10/21 00:17:08;;;;;;;;;;;;;;;;;;2104365;28;1318;-86
2021/10/21 00:18:10;;;;;;;;;;;;;;;;;;2109813;28;1324;-85
2021/10/21 00:19:11;;;;;;;;;;;;;;;;;;2108839;28;1176;-86
2021/10/21 00:20:13;;;;;;;;;;;;;;;;;;2109512;28;1313;-86
2021/10/21 00:21:15;;;;;;;;;;;;;;;;;;2108809;28;2055;-86
2021/10/21 00:22:18;;;;;;;;;;;;;;;;;;2117800;27;1371;-85
2021/10/21 00:23:19;;;;;;;;;;;;;;;;;;2117250;28;1420;-85
2021/10/21 00:24:21;;;;;;;;;;;;;;;;;;2109368;28;1239;-86
2021/10/21 00:25:22;;;;;;;;;;;;;;;;;;2109333;28;1329;-86
2021/10/21 00:26:25;;;;;;;;;;;;;;;;;;2109461;28;2031;-86
2021/10/21 00:27:26;;;;;;;;;;;;;;;;;;2109100;28;1346;-85
2021/10/21 00:28:28;;;;;;;;;;;;;;;;;;2109230;28;1971;-86
2021/10/21 00:29:29;;;;;;;;;;;;;;;;;;2100099;28;1262;-85
2021/10/21 00:30:31;;;;;;;;;;;;;;;;;;2101132;28;1273;-86
2021/10/21 00:31:32;;;;;;;;;;;;;;;;;;2100347;28;1376;-85
2021/10/21 00:32:34;;;;;;;;;;;;;;;;;;2109210;28;1356;-86
2021/10/21 00:33:34;;;;;;;;;;;;;;;;;;2108932;28;1198;-86
2021/10/21 00:34:37;;;;;;;;;;;;;;;;;;2108933;28;1247;-86
2021/10/21 00:35:38;;;;;;;;;;;;;;;;;;2094279;28;1270;-86
2021/10/21 00:36:41;;;;;;;;;;;;;;;;;;2100855;28;1348;-86
2021/10/21 00:37:42;;;;;;;;;;;;;;;;;;2103458;28;1337;-86
2021/10/21 00:38:45;;;;;;;;;;;;;;;;;;2100885;28;1522;-85
2021/10/21 00:39:45;;;;;;;;;;;;;;;;;;2100499;28;1223;-86
2021/10/21 00:40:48;;;;;;;;;;;;;;;;;;2100859;28;1329;-86
2021/10/21 00:41:48;;;;;;;;;;;;;;;;;;2108890;28;1230;-86
2021/10/21 00:42:50;;;;;;;;;;;;;;;;;;2117130;28;1425;-85
2021/10/21 00:44:03;;;;;;;;;;;;;;;;;;2108228;28;1295;-86
2021/10/21 00:45:06;;;;;;;;;;;;;;;;;;2102277;28;1282;-86
2021/10/21 00:46:09;;;;;;;;;;;;;;;;;;2100814;28;1285;-85
2021/10/21 00:47:11;;;;;;;;;;;;;;;;;;2092575;28;1334;-86
2021/10/21 00:48:11;;;;;;;;;;;;;;;;;;2109010;28;1914;-86
2021/10/21 00:49:13;;;;;;;;;;;;;;;;;;2109031;28;1311;-86
2021/10/21 00:50:14;;;;;;;;;;;;;;;;;;2108721;28;1254;-85
2021/10/21 00:51:16;;;;;;;;;;;;;;;;;;2100275;28;1290;-86
2021/10/21 00:52:20;;;;;;;;;;;;;;;;;;2109115;28;1324;-86
2021/10/21 00:53:21;;;;;;;;;;;;;;;;;;2109077;28;1371;-86
2021/10/21 00:54:24;;;;;;;;;;;;;;;;;;2108800;28;1254;-85
2021/10/21 00:55:25;;;;;;;;;;;;;;;;;;2108976;28;1400;-86
2021/10/21 00:56:28;;;;;;;;;;;;;;;;;;2100633;28;1276;-85
2021/10/21 00:57:29;;;;;;;;;;;;;;;;;;2108407;28;1204;-85
2021/10/21 00:58:31;;;;;;;;;;;;;;;;;;2108861;28;1255;-85
2021/10/21 00:59:34;;;;;;;;;;;;;;;;;;2108881;28;1301;-86
2021/10/21 01:00:36;;;;;;;;;;;;;;;;;;2108675;28;1321;-86
2021/10/21 01:01:36;;;;;;;;;;;;;;;;;;2100360;28;1229;-85
2021/10/21 01:02:38;;;;;;;;;;;;;;;;;;2100671;28;1267;-86
2021/10/21 01:03:39;;;;;;;;;;;;;;;;;;2108423;28;1469;-86
2021/10/21 01:04:41;;;;;;;;;;;;;;;;;;2108816;28;1294;-86
2021/10/21 01:05:42;;;;;;;;;;;;;;;;;;2108624;28;1248;-86
2021/10/21 01:06:46;;;;;;;;;;;;;;;;;;2108020;28;1331;-85
2021/10/21 01:07:50;;;;;;;;;;;;;;;;;;2108645;28;1366;-86
2021/10/21 01:08:52;;;;;;;;;;;;;;;;;;2100779;28;1979;-85
2021/10/21 01:09:54;;;;;;;;;;;;;;;;;;2108463;28;1255;-86
2021/10/21 01:10:56;;;;;;;;;;;;;;;;;;2108720;28;1592;-85
2021/10/21 01:11:56;;;;;;;;;;;;;;;;;;2100177;28;1361;-86
2021/10/21 01:12:58;;;;;;;;;;;;;;;;;;2100377;28;1247;-86
2021/10/21 01:13:59;;;;;;;;;;;;;;;;;;2099818;28;1394;-85
2021/10/21 01:15:19;;;;;;;;;;;;;;;;;;2092405;28;1301;-86
2021/10/21 01:16:20;;;;;;;;;;;;;;;;;;2102899;28;1413;-86
2021/10/21 01:17:22;;;;;;;;;;;;;;;;;;2111111;28;2030;-85
2021/10/21 01:18:23;;;;;;;;;;;;;;;;;;2100570;28;1346;-85
2021/10/21 01:19:26;;;;;;;;;;;;;;;;;;2108646;28;1330;-85
2021/10/21 01:20:28;;;;;;;;;;;;;;;;;;2108536;28;1349;-86
2021/10/21 01:21:30;;;;;;;;;;;;;;;;;;2100400;28;1453;-85
2021/10/21 01:22:31;;;;;;;;;;;;;;;;;;2100485;28;1904;-86
2021/10/21 01:23:34;;;;;;;;;;;;;;;;;;2099915;28;1334;-85
2021/10/21 01:24:35;;;;;;;;;;;;;;;;;;2108449;28;1337;-85
2021/10/21 01:25:37;;;;;;;;;;;;;;;;;;2099912;28;1464;-85
2021/10/21 01:26:38;;;;;;;;;;;;;;;;;;2108332;28;1309;-85
2021/10/21 01:27:40;;;;;;;;;;;;;;;;;;2104949;28;1259;-85
2021/10/21 01:28:42;;;;;;;;;;;;;;;;;;2108669;28;1957;-86
2021/10/21 01:29:44;;;;;;;;;;;;;;;;;;2108192;28;1182;-86
2021/10/21 01:30:45;;;;;;;;;;;;;;;;;;2114157;28;1209;-86
2021/10/21 01:31:47;;;;;;;;;;;;;;;;;;2116497;28;1352;-85
2021/10/21 01:32:50;;;;;;;;;;;;;;;;;;2115188;28;1206;-86
2021/10/21 01:33:51;;;;;;;;;;;;;;;;;;2108745;28;1158;-86
2021/10/21 01:34:53;;;;;;;;;;;;;;;;;;2108740;28;1421;-86
2021/10/21 01:35:55;;;;;;;;;;;;;;;;;;2108870;28;1330;-86
2021/10/21 01:36:57;;;;;;;;;;;;;;;;;;2117283;28;1404;-86
2021/10/21 01:37:58;;;;;;;;;;;;;;;;;;2109082;28;1226;-85
2021/10/21 01:39:00;;;;;;;;;;;;;;;;;;2100382;28;1285;-87
2021/10/21 01:40:00;;;;;;;;;;;;;;;;;;2100032;28;1215;-87
2021/10/21 01:41:02;;;;;;;;;;;;;;;;;;2100361;28;1279;-86
2021/10/21 01:42:05;;;;;;;;;;;;;;;;;;2099882;28;1268;-86
2021/10/21 01:43:06;;;;;;;;;;;;;;;;;;2091508;28;1201;-86
2021/10/21 01:44:11;;;;;;;;;;;;;;;;;;2092231;28;1317;-86
2021/10/21 01:45:17;;;;;;;;;;;;;;;;;;2092074;28;1297;-86
2021/10/21 01:46:20;;;;;;;;;;;;;;;;;;2106569;28;1200;-87
2021/10/21 01:47:21;;;;;;;;;;;;;;;;;;2099750;28;2027;-85
2021/10/21 01:48:24;;;;;;;;;;;;;;;;;;2100282;28;1971;-86
2021/10/21 01:49:25;;;;;;;;;;;;;;;;;;2099687;28;1308;-86
2021/10/21 01:50:28;;;;;;;;;;;;;;;;;;2100111;28;1327;-87
2021/10/21 01:51:30;;;;;;;;;;;;;;;;;;2099599;28;1338;-87
2021/10/21 01:52:34;;;;;;;;;;;;;;;;;;2100639;28;1931;-86
2021/10/21 01:53:35;;;;;;;;;;;;;;;;;;2099977;28;1401;-86
2021/10/21 01:54:36;;;;;;;;;;;;;;;;;;2100414;28;1456;-87
2021/10/21 01:55:38;;;;;;;;;;;;;;;;;;2108430;28;1217;-88
2021/10/21 01:56:39;;;;;;;;;;;;;;;;;;2108186;28;1223;-87
2021/10/21 01:57:41;;;;;;;;;;;;;;;;;;2099925;28;1239;-86
2021/10/21 01:58:42;;;;;;;;;;;;;;;;;;2099436;28;1181;-86
2021/10/21 01:59:45;;;;;;;;;;;;;;;;;;2100010;28;1337;-86
2021/10/21 02:00:48;;;;;;;;;;;;;;;;;;2108471;28;1121;-87
2021/10/21 02:01:49;;;;;;;;;;;;;;;;;;2107974;28;1316;-86
2021/10/21 02:02:51;;;;;;;;;;;;;;;;;;2106432;28;2258;-86
2021/10/21 02:03:52;;;;;;;;;;;;;;;;;;2116754;28;1454;-86
2021/10/21 02:04:54;;;;;;;;;;;;;;;;;;2116536;28;1196;-86
2021/10/21 02:05:55;;;;;;;;;;;;;;;;;;2104187;28;1317;-86
2021/10/21 02:06:58;;;;;;;;;;;;;;;;;;2099616;28;1247;-86
2021/10/21 02:07:59;;;;;;;;;;;;;;;;;;2099918;28;1404;-86
2021/10/21 02:09:01;;;;;;;;;;;;;;;;;;2099541;28;1977;-86
2021/10/21 02:10:04;;;;;;;;;;;;;;;;;;2092000;28;1306;-86
2021/10/21 02:11:06;;;;;;;;;;;;;;;;;;2091736;28;2097;-86
2021/10/21 02:12:06;;;;;;;;;;;;;;;;;;2100017;28;1191;-86
2021/10/21 02:13:08;;;;;;;;;;;;;;;;;;2099552;28;1239;-86
2021/10/21 02:14:09;;;;;;;;;;;;;;;;;;2100026;28;1259;-86
2021/10/21 02:15:12;;;;;;;;;;;;;;;;;;2108010;28;1351;-86
2021/10/21 02:16:13;;;;;;;;;;;;;;;;;;2099875;28;1368;-86
2021/10/21 02:17:15;;;;;;;;;;;;;;;;;;2102617;28;1485;-86
2021/10/21 02:18:15;;;;;;;;;;;;;;;;;;2091232;28;1339;-85
2021/10/21 02:19:18;;;;;;;;;;;;;;;;;;2091414;28;1197;-86
2021/10/21 02:20:19;;;;;;;;;;;;;;;;;;2091542;28;1298;-87
2021/10/21 02:21:21;;;;;;;;;;;;;;;;;;2100025;28;1430;-86
2021/10/21 02:22:24;;;;;;;;;;;;;;;;;;2099476;28;1403;-86
2021/10/21 02:23:25;;;;;;;;;;;;;;;;;;2099398;28;1457;-87
2021/10/21 02:24:26;;;;;;;;;;;;;;;;;;2099916;28;1258;-87
2021/10/21 02:25:29;;;;;;;;;;;;;;;;;;2083431;28;1319;-87
2021/10/21 02:26:29;;;;;;;;;;;;;;;;;;2091373;28;1243;-87
2021/10/21 02:27:32;;;;;;;;;;;;;;;;;;2099311;28;1203;-87
2021/10/21 02:28:33;;;;;;;;;;;;;;;;;;2083431;28;1373;-86
2021/10/21 02:29:35;;;;;;;;;;;;;;;;;;2090823;28;1917;-87
2021/10/21 02:30:35;;;;;;;;;;;;;;;;;;2107907;28;1398;-87
2021/10/21 02:31:38;;;;;;;;;;;;;;;;;;2108222;28;1241;-87
2021/10/21 02:32:39;;;;;;;;;;;;;;;;;;2104607;28;2106;-87
2021/10/21 02:33:41;;;;;;;;;;;;;;;;;;2107837;28;1211;-87
2021/10/21 02:34:42;;;;;;;;;;;;;;;;;;2108096;28;1453;-88
2021/10/21 02:35:44;;;;;;;;;;;;;;;;;;2108079;28;1230;-87
2021/10/21 02:36:45;;;;;;;;;;;;;;;;;;2116513;28;1309;-87
2021/10/21 02:37:48;;;;;;;;;;;;;;;;;;2111026;28;1494;-87
2021/10/21 02:38:49;;;;;;;;;;;;;;;;;;2108617;28;1257;-87
2021/10/21 02:39:53;;;;;;;;;;;;;;;;;;2116554;28;889;-88
2021/10/21 02:40:55;;;;;;;;;;;;;;;;;;2112794;28;1987;-87
2021/10/21 02:41:57;;;;;;;;;;;;;;;;;;2116047;28;1273;-85
2021/10/21 02:42:58;;;;;;;;;;;;;;;;;;2115861;28;1316;-85
2021/10/21 02:44:00;;;;;;;;;;;;;;;;;;2108465;28;1339;-85
2021/10/21 02:45:00;;;;;;;;;;;;;;;;;;2107297;28;1417;-85
2021/10/21 02:46:03;;;;;;;;;;;;;;;;;;2107994;28;1853;-84
2021/10/21 02:47:03;;;;;;;;;;;;;;;;;;2116418;28;1213;-85
2021/10/21 02:48:06;;;;;;;;;;;;;;;;;;2116584;28;1232;-85
2021/10/21 02:49:08;;;;;;;;;;;;;;;;;;2116394;28;1913;-85
2021/10/21 02:50:10;;;;;;;;;;;;;;;;;;2107849;28;1337;-84
2021/10/21 02:51:10;;;;;;;;;;;;;;;;;;2107450;28;1324;-85
2021/10/21 02:52:13;;;;;;;;;;;;;;;;;;2106728;28;1405;-86
2021/10/21 02:53:15;;;;;;;;;;;;;;;;;;2099258;28;1230;-85
2021/10/21 02:54:17;;;;;;;;;;;;;;;;;;2099761;28;1366;-85
2021/10/21 02:55:18;;;;;;;;;;;;;;;;;;2083061;28;1365;-85
2021/10/21 02:56:19;;;;;;;;;;;;;;;;;;2089952;28;2055;-85
2021/10/21 02:57:20;;;;;;;;;;;;;;;;;;2090849;28;1285;-85
2021/10/21 02:58:22;;;;;;;;;;;;;;;;;;2091140;28;1335;-86
2021/10/21 02:59:23;;;;;;;;;;;;;;;;;;2090631;28;1367;-86
2021/10/21 03:00:24;;;;;;;;;;;;;;;;;;2100032;28;1333;-85
2021/10/21 03:01:27;;;;;;;;;;;;;;;;;;2107916;28;1274;-85
2021/10/21 03:02:29;;;;;;;;;;;;;;;;;;2099911;28;1352;-85
2021/10/21 03:03:30;;;;;;;;;;;;;;;;;;2099587;28;1234;-85
2021/10/21 03:04:32;;;;;;;;;;;;;;;;;;2091334;28;1249;-85
2021/10/21 03:05:33;;;;;;;;;;;;;;;;;;2092309;28;1243;-85
2021/10/21 03:06:36;;;;;;;;;;;;;;;;;;2108055;28;1110;-85
2021/10/21 03:07:37;;;;;;;;;;;;;;;;;;2108061;28;1310;-85
2021/10/21 03:08:43;;;;;;;;;;;;;;;;;;2099522;28;1334;-85
2021/10/21 03:09:45;;;;;;;;;;;;;;;;;;2107932;28;1910;-85
2021/10/21 03:10:46;;;;;;;;;;;;;;;;;;2099752;28;1269;-85
2021/10/21 03:11:47;;;;;;;;;;;;;;;;;;2099497;28;1380;-84
2021/10/21 03:12:48;;;;;;;;;;;;;;;;;;2099228;28;1336;-84
2021/10/21 03:13:50;;;;;;;;;;;;;;;;;;2099137;28;1410;-84
2021/10/21 03:14:51;;;;;;;;;;;;;;;;;;2098954;28;1217;-85
2021/10/21 03:15:52;;;;;;;;;;;;;;;;;;2107569;28;1917;-85
2021/10/21 03:16:53;;;;;;;;;;;;;;;;;;2101112;28;1218;-85
2021/10/21 03:17:55;;;;;;;;;;;;;;;;;;2099389;28;1302;-85
2021/10/21 03:18:56;;;;;;;;;;;;;;;;;;2108084;28;1202;-85
2021/10/21 03:19:58;;;;;;;;;;;;;;;;;;2099598;28;1304;-86
2021/10/21 03:20:59;;;;;;;;;;;;;;;;;;2103664;28;1281;-87
2021/10/21 03:22:01;;;;;;;;;;;;;;;;;;2107773;28;1449;-86
2021/10/21 03:23:02;;;;;;;;;;;;;;;;;;2115969;28;1375;-86
2021/10/21 03:24:07;;;;;;;;;;;;;;;;;;2116611;28;1332;-86
2021/10/21 03:25:08;;;;;;;;;;;;;;;;;;2100161;28;1255;-86
2021/10/21 03:26:14;;;;;;;;;;;;;;;;;;2099824;28;1186;-87
2021/10/21 03:27:16;;;;;;;;;;;;;;;;;;2108586;28;1449;-86
2021/10/21 03:28:18;;;;;;;;;;;;;;;;;;2108347;28;1571;-87
2021/10/21 03:29:19;;;;;;;;;;;;;;;;;;2107637;28;1910;-86
2021/10/21 03:30:23;;;;;;;;;;;;;;;;;;2107500;28;1264;-86
2021/10/21 03:31:24;;;;;;;;;;;;;;;;;;2116273;28;2090;-86
2021/10/21 03:32:26;;;;;;;;;;;;;;;;;;2112832;28;1333;-86
2021/10/21 03:33:27;;;;;;;;;;;;;;;;;;2108116;28;1262;-86
2021/10/21 03:34:30;;;;;;;;;;;;;;;;;;2107481;28;1228;-86
2021/10/21 03:35:31;;;;;;;;;;;;;;;;;;2108357;28;1359;-86
2021/10/21 03:36:33;;;;;;;;;;;;;;;;;;2108390;28;1235;-87
2021/10/21 03:37:34;;;;;;;;;;;;;;;;;;2108285;28;1434;-86
2021/10/21 03:38:36;;;;;;;;;;;;;;;;;;2108012;28;1247;-86
2021/10/21 03:39:40;;;;;;;;;;;;;;;;;;2107404;28;1300;-86
2021/10/21 03:40:41;;;;;;;;;;;;;;;;;;2107998;28;1246;-86
2021/10/21 03:41:42;;;;;;;;;;;;;;;;;;2099219;28;1254;-86
2021/10/21 03:42:44;;;;;;;;;;;;;;;;;;2108118;28;1345;-86
2021/10/21 03:43:45;;;;;;;;;;;;;;;;;;2107897;28;1273;-85
2021/10/21 03:44:48;;;;;;;;;;;;;;;;;;2107332;28;1346;-86
2021/10/21 03:45:49;;;;;;;;;;;;;;;;;;2119556;28;2021;-85
2021/10/21 03:46:51;;;;;;;;;;;;;;;;;;2116590;28;1416;-85
2021/10/21 03:47:52;;;;;;;;;;;;;;;;;;2108911;28;1362;-86
2021/10/21 03:48:54;;;;;;;;;;;;;;;;;;2107292;28;1337;-85
2021/10/21 03:49:55;;;;;;;;;;;;;;;;;;2107807;28;2030;-85
2021/10/21 03:50:57;;;;;;;;;;;;;;;;;;2107742;28;1325;-85
2021/10/21 03:51:58;;;;;;;;;;;;;;;;;;2107599;28;1212;-86
2021/10/21 03:53:00;;;;;;;;;;;;;;;;;;2107347;28;1370;-86
2021/10/21 03:54:01;;;;;;;;;;;;;;;;;;2116533;28;825;-86
2021/10/21 03:55:05;;;;;;;;;;;;;;;;;;2116161;28;1403;-85
2021/10/21 03:56:07;;;;;;;;;;;;;;;;;;2107823;28;1388;-86
2021/10/21 03:57:09;;;;;;;;;;;;;;;;;;2107675;28;1361;-86
2021/10/21 03:58:10;;;;;;;;;;;;;;;;;;2107555;28;1247;-86
2021/10/21 03:59:12;;;;;;;;;;;;;;;;;;2108056;28;1244;-85
2021/10/21 04:00:13;;;;;;;;;;;;;;;;;;2107116;28;1399;-86
2021/10/21 04:01:15;;;;;;;;;;;;;;;;;;2108001;28;1270;-85
2021/10/21 04:02:16;;;;;;;;;;;;;;;;;;2099500;28;1293;-85
2021/10/21 04:03:18;;;;;;;;;;;;;;;;;;2099206;28;1293;-86
2021/10/21 04:04:19;;;;;;;;;;;;;;;;;;2107464;28;1209;-85
2021/10/21 04:05:22;;;;;;;;;;;;;;;;;;2107534;28;1218;-84
2021/10/21 04:06:23;;;;;;;;;;;;;;;;;;2107393;28;1870;-85
2021/10/21 04:07:25;;;;;;;;;;;;;;;;;;2107117;28;1222;-85
2021/10/21 04:08:26;;;;;;;;;;;;;;;;;;2115944;28;1175;-85
2021/10/21 04:09:27;;;;;;;;;;;;;;;;;;2115582;28;1978;-84
2021/10/21 04:10:31;;;;;;;;;;;;;;;;;;2116370;28;835;-86
2021/10/21 04:11:32;;;;;;;;;;;;;;;;;;2115962;28;1383;-86
2021/10/21 04:12:33;;;;;;;;;;;;;;;;;;2111482;28;1406;-86
2021/10/21 04:13:35;;;;;;;;;;;;;;;;;;2107306;28;1477;-86
2021/10/21 04:14:37;;;;;;;;;;;;;;;;;;2115967;28;937;-86
2021/10/21 04:15:39;;;;;;;;;;;;;;;;;;2115731;28;1597;-85
2021/10/21 04:16:40;;;;;;;;;;;;;;;;;;2107348;28;1363;-86
2021/10/21 04:17:42;;;;;;;;;;;;;;;;;;2106750;28;1994;-85
2021/10/21 04:18:42;;;;;;;;;;;;;;;;;;2107969;28;1202;-86
2021/10/21 04:19:45;;;;;;;;;;;;;;;;;;2098990;28;1431;-89
2021/10/21 04:20:46;;;;;;;;;;;;;;;;;;2099288;28;1159;-88
2021/10/21 04:21:48;;;;;;;;;;;;;;;;;;2107473;28;1332;-88
2021/10/21 04:22:48;;;;;;;;;;;;;;;;;;2099591;28;1434;-88
2021/10/21 04:23:50;;;;;;;;;;;;;;;;;;2098870;28;1456;-89
2021/10/21 04:24:51;;;;;;;;;;;;;;;;;;2099302;28;1261;-88
2021/10/21 04:25:54;;;;;;;;;;;;;;;;;;2103066;28;1298;-86
2021/10/21 04:26:55;;;;;;;;;;;;;;;;;;2099811;28;1217;-83
2021/10/21 04:27:57;;;;;;;;;;;;;;;;;;2107109;28;1350;-83
2021/10/21 04:28:58;;;;;;;;;;;;;;;;;;2099298;28;1430;-85
2021/10/21 04:30:00;;;;;;;;;;;;;;;;;;2099131;28;1967;-83
2021/10/21 04:31:00;;;;;;;;;;;;;;;;;;2098653;28;1227;-83
2021/10/21 04:32:02;;;;;;;;;;;;;;;;;;2099295;28;1345;-83
2021/10/21 04:33:03;;;;;;;;;;;;;;;;;;2090621;28;1166;-84
2021/10/21 04:34:05;;;;;;;;;;;;;;;;;;2099211;28;1246;-83
2021/10/21 04:35:06;;;;;;;;;;;;;;;;;;2091047;28;1372;-84
2021/10/21 04:36:08;;;;;;;;;;;;;;;;;;2082513;28;1211;-86
2021/10/21 04:37:08;;;;;;;;;;;;;;;;;;2090972;28;1963;-84
2021/10/21 04:38:10;;;;;;;;;;;;;;;;;;2091001;28;1192;-83
2021/10/21 04:39:11;;;;;;;;;;;;;;;;;;2090402;28;1187;-84
2021/10/21 04:40:13;;;;;;;;;;;;;;;;;;2090965;28;1344;-83
2021/10/21 04:41:15;;;;;;;;;;;;;;;;;;2090391;28;1444;-83
2021/10/21 04:42:18;;;;;;;;;;;;;;;;;;2094104;28;1404;-81
2021/10/21 04:43:18;;;;;;;;;;;;;;;;;;2100674;28;1275;-84
2021/10/21 04:44:20;;;;;;;;;;;;;;;;;;2100392;28;1302;-83
2021/10/21 04:45:21;;;;;;;;;;;;;;;;;;2100186;28;1224;-82
2021/10/21 04:46:23;;;;;;;;;;;;;;;;;;2100123;28;1359;-82
2021/10/21 04:47:24;;;;;;;;;;;;;;;;;;2108253;28;1315;-82
2021/10/21 04:48:26;;;;;;;;;;;;;;;;;;2109325;28;1564;-81
2021/10/21 04:49:27;;;;;;;;;;;;;;;;;;2108669;28;1976;-82
2021/10/21 04:50:29;;;;;;;;;;;;;;;;;;2108731;28;1595;-84
2021/10/21 04:51:30;;;;;;;;;;;;;;;;;;2102995;28;1485;-82
2021/10/21 04:52:33;;;;;;;;;;;;;;;;;;2108634;28;1751;-81
2021/10/21 04:53:33;;;;;;;;;;;;;;;;;;2100417;28;1380;-82
2021/10/21 04:54:35;;;;;;;;;;;;;;;;;;2100047;28;1378;-82
2021/10/21 04:55:36;;;;;;;;;;;;;;;;;;2100078;28;1242;-82
2021/10/21 04:56:40;;;;;;;;;;;;;;;;;;2108815;28;1289;-82
2021/10/21 04:57:42;;;;;;;;;;;;;;;;;;2097920;28;1249;-82
2021/10/21 04:58:43;;;;;;;;;;;;;;;;;;2092060;28;1495;-82
2021/10/21 04:59:45;;;;;;;;;;;;;;;;;;2100130;28;1560;-82
2021/10/21 05:00:45;;;;;;;;;;;;;;;;;;2099871;28;1991;-82
2021/10/21 05:01:47;;;;;;;;;;;;;;;;;;2099602;28;1565;-81
2021/10/21 05:02:48;;;;;;;;;;;;;;;;;;2083932;28;1291;-82
2021/10/21 05:03:51;;;;;;;;;;;;;;;;;;2086686;28;1382;-83
2021/10/21 05:04:51;;;;;;;;;;;;;;;;;;2100685;28;1333;-81
2021/10/21 05:05:53;;;;;;;;;;;;;;;;;;2099653;28;1967;-83
2021/10/21 05:06:54;;;;;;;;;;;;;;;;;;2100340;28;1231;-82
2021/10/21 05:07:56;;;;;;;;;;;;;;;;;;2100225;28;1362;-82
2021/10/21 05:08:56;;;;;;;;;;;;;;;;;;2099669;28;1288;-86
2021/10/21 05:09:58;;;;;;;;;;;;;;;;;;2108428;28;1921;-83
2021/10/21 05:10:59;;;;;;;;;;;;;;;;;;2108317;28;1332;-83
2021/10/21 05:12:02;;;;;;;;;;;;;;;;;;2100076;28;1346;-82
2021/10/21 05:13:03;;;;;;;;;;;;;;;;;;2100459;28;1329;-83
2021/10/21 05:14:05;;;;;;;;;;;;;;;;;;2108820;28;1385;-82
2021/10/21 05:15:07;;;;;;;;;;;;;;;;;;2099494;28;1684;-83
2021/10/21 05:16:10;;;;;;;;;;;;;;;;;;2106107;28;1313;-82
2021/10/21 05:17:11;;;;;;;;;;;;;;;;;;2110193;28;1734;-83
2021/10/21 05:18:13;;;;;;;;;;;;;;;;;;2116927;28;1749;-82
2021/10/21 05:19:13;;;;;;;;;;;;;;;;;;2116610;28;1380;-82
2021/10/21 05:20:15;;;;;;;;;;;;;;;;;;2108512;28;1333;-83
2021/10/21 05:21:16;;;;;;;;;;;;;;;;;;2108022;28;1329;-83
2021/10/21 05:22:17;;;;;;;;;;;;;;;;;;2108173;28;1273;-82
2021/10/21 05:23:19;;;;;;;;;;;;;;;;;;2108173;28;1300;-83
2021/10/21 05:24:20;;;;;;;;;;;;;;;;;;2116572;28;1479;-81
2021/10/21 05:25:22;;;;;;;;;;;;;;;;;;2116662;28;1403;-83
2021/10/21 05:26:22;;;;;;;;;;;;;;;;;;2108272;28;1305;-82
2021/10/21 05:27:26;;;;;;;;;;;;;;;;;;2108078;28;2124;-82
2021/10/21 05:28:26;;;;;;;;;;;;;;;;;;2108471;28;1369;-82
2021/10/21 05:29:29;;;;;;;;;;;;;;;;;;2108365;28;1222;-82
2021/10/21 05:30:30;;;;;;;;;;;;;;;;;;2108187;28;1962;-83
2021/10/21 05:31:32;;;;;;;;;;;;;;;;;;2108205;28;1407;-83
2021/10/21 05:32:33;;;;;;;;;;;;;;;;;;2108510;28;1622;-82
2021/10/21 05:33:35;;;;;;;;;;;;;;;;;;2116683;27;1408;-82
2021/10/21 05:34:38;;;;;;;;;;;;;;;;;;2116470;28;1596;-82
2021/10/21 05:35:39;;;;;;;;;;;;;;;;;;2116844;28;1515;-82
2021/10/21 05:36:40;;;;;;;;;;;;;;;;;;2107465;28;1549;-82
2021/10/21 05:37:41;;;;;;;;;;;;;;;;;;2099275;28;1183;-84
2021/10/21 05:38:43;;;;;;;;;;;;;;;;;;2104973;28;1457;-84
2021/10/21 05:39:44;;;;;;;;;;;;;;;;;;2108087;28;1195;-83
2021/10/21 05:40:46;;;;;;;;;;;;;;;;;;2108146;28;1413;-83
2021/10/21 05:41:46;;;;;;;;;;;;;;;;;;2116886;28;1223;-84
2021/10/21 05:42:50;;;;;;;;;;;;;;;;;;2108053;28;1238;-83
2021/10/21 05:43:53;;;;;;;;;;;;;;;;;;2099843;28;1231;-83
2021/10/21 05:44:55;;;;;;;;;;;;;;;;;;2092113;28;1267;-83
2021/10/21 05:45:55;;;;;;;;;;;;;;;;;;2099829;28;1199;-83
2021/10/21 05:46:58;;;;;;;;;;;;;;;;;;2108127;28;1301;-83
2021/10/21 05:48:00;;;;;;;;;;;;;;;;;;2107688;28;1362;-83
2021/10/21 05:49:00;;;;;;;;;;;;;;;;;;2117002;28;1468;-84
2021/10/21 05:50:02;;;;;;;;;;;;;;;;;;2108242;28;1913;-83
2021/10/21 05:51:03;;;;;;;;;;;;;;;;;;2116729;28;1147;-83
2021/10/21 05:52:05;;;;;;;;;;;;;;;;;;2116521;28;1219;-83
2021/10/21 05:53:06;;;;;;;;;;;;;;;;;;2107600;28;1536;-84
2021/10/21 05:54:08;;;;;;;;;;;;;;;;;;2099850;28;1572;-84
2021/10/21 05:55:09;;;;;;;;;;;;;;;;;;2092081;28;1181;-84
2021/10/21 05:56:11;;;;;;;;;;;;;;;;;;2105311;28;1368;-83
2021/10/21 05:57:12;;;;;;;;;;;;;;;;;;2107594;28;1535;-85
2021/10/21 05:58:15;;;;;;;;;;;;;;;;;;2108286;28;1218;-82
2021/10/21 05:59:17;;;;;;;;;;;;;;;;;;2116723;28;905;-83
2021/10/21 06:00:17;;;;;;;;;;;;;;;;;;2125330;27;1389;-88
2021/10/21 06:01:19;;;;;;;;;;;;;;;;;;2108426;28;1821;-83
2021/10/21 06:02:20;;;;;;;;;;;;;;;;;;2108423;28;1498;-83
2021/10/21 06:03:25;;;;;;;;;;;;;;;;;;2108326;28;1214;-84
2021/10/21 06:04:26;;;;;;;;;;;;;;;;;;2100007;28;1363;-84
2021/10/21 06:05:28;;;;;;;;;;;;;;;;;;2099472;28;1267;-84
2021/10/21 06:06:32;;;;;;;;;;;;;;;;;;2099717;28;1187;-83
2021/10/21 06:07:34;;;;;;;;;;;;;;;;;;2103569;28;2039;-84
2021/10/21 06:08:35;;;;;;;;;;;;;;;;;;2100032;28;1245;-83
2021/10/21 06:09:36;;;;;;;;;;;;;;;;;;2099941;28;1196;-83
2021/10/21 06:10:37;;;;;;;;;;;;;;;;;;2108110;28;1971;-83
2021/10/21 06:11:39;;;;;;;;;;;;;;;;;;2103944;28;1623;-83
2021/10/21 06:12:40;;;;;;;;;;;;;;;;;;2100073;28;1214;-83
2021/10/21 06:13:43;;;;;;;;;;;;;;;;;;2108221;28;1258;-83
2021/10/21 06:14:44;;;;;;;;;;;;;;;;;;2116776;28;770;-82
2021/10/21 06:15:46;;;;;;;;;;;;;;;;;;2110881;28;1372;-82
2021/10/21 06:16:48;;;;;;;;;;;;;;;;;;2099918;28;1262;-82
2021/10/21 06:17:50;;;;;;;;;;;;;;;;;;2099520;28;1454;-82
2021/10/21 06:18:51;;;;;;;;;;;;;;;;;;2108190;28;1213;-84
2021/10/21 06:19:53;;;;;;;;;;;;;;;;;;2107618;28;1429;-81
2021/10/21 06:20:54;;;;;;;;;;;;;;;;;;2099696;28;1639;-82
2021/10/21 06:22:00;;;;;;;;;;;;;;;;;;2099751;28;1550;-82
2021/10/21 06:23:02;;;;;;;;;;;;;;;;;;2115454;28;1187;-84
2021/10/21 06:24:03;;;;;;;;;;;;;;;;;;2108083;28;1323;-83
2021/10/21 06:25:07;;;;;;;;;;;;;;;;;;2108185;28;1683;-83
2021/10/21 06:26:08;;;;;;;;;;;;;;;;;;2105056;28;2063;-83
2021/10/21 06:27:10;;;;;;;;;;;;;;;;;;2099218;28;1404;-82
2021/10/21 06:28:10;;;;;;;;;;;;;;;;;;2099916;28;1258;-83
2021/10/21 06:29:15;;;;;;;;;;;;;;;;;;2099730;28;1251;-83
2021/10/21 06:30:16;;;;;;;;;;;;;;;;;;2099524;28;1973;-83
2021/10/21 06:31:18;;;;;;;;;;;;;;;;;;2099217;28;1322;-82
2021/10/21 06:32:19;;;;;;;;;;;;;;;;;;2107984;28;1589;-83
2021/10/21 06:33:21;;;;;;;;;;;;;;;;;;2099547;28;1291;-83
2021/10/21 06:34:22;;;;;;;;;;;;;;;;;;2107554;28;1469;-83
2021/10/21 06:35:24;;;;;;;;;;;;;;;;;;2108033;28;1104;-82
2021/10/21 06:36:26;;;;;;;;;;;;;;;;;;2099643;28;1646;-82
2021/10/21 06:37:28;;;;;;;;;;;;;;;;;;2091500;28;1250;-83
2021/10/21 06:38:30;;;;;;;;;;;;;;;;;;2091525;28;1255;-82
2021/10/21 06:39:32;;;;;;;;;;;;;;;;;;2083144;28;1524;-84
2021/10/21 06:40:32;;;;;;;;;;;;;;;;;;2091361;28;1590;-82
2021/10/21 06:41:34;;;;;;;;;;;;;;;;;;2099538;28;1397;-83
2021/10/21 06:42:35;;;;;;;;;;;;;;;;;;2103823;28;1328;-83
2021/10/21 06:43:37;;;;;;;;;;;;;;;;;;2107954;28;1234;-81
2021/10/21 06:44:40;;;;;;;;;;;;;;;;;;2099251;28;1191;-83
2021/10/21 06:45:41;;;;;;;;;;;;;;;;;;2107534;28;1853;-81
2021/10/21 06:46:43;;;;;;;;;;;;;;;;;;2107918;28;1529;-82
2021/10/21 06:47:43;;;;;;;;;;;;;;;;;;2099425;28;1524;-82
2021/10/21 06:48:47;;;;;;;;;;;;;;;;;;2099451;28;1325;-82
2021/10/21 06:49:48;;;;;;;;;;;;;;;;;;2099848;28;1291;-82
2021/10/21 06:50:50;;;;;;;;;;;;;;;;;;2098902;28;1972;-81
2021/10/21 06:51:50;;;;;;;;;;;;;;;;;;2099062;28;1376;-82
2021/10/21 06:52:52;;;;;;;;;;;;;;;;;;2099410;28;1345;-82
2021/10/21 06:53:53;;;;;;;;;;;;;;;;;;2099369;28;1244;-81
2021/10/21 06:54:55;;;;;;;;;;;;;;;;;;2099231;28;1547;-80
2021/10/21 06:55:56;;;;;;;;;;;;;;;;;;2099294;28;1530;-82
2021/10/21 06:56:58;;;;;;;;;;;;;;;;;;2099498;28;1663;-81
2021/10/21 06:57:59;;;;;;;;;;;;;;;;;;2108180;28;1645;-82
2021/10/21 06:59:01;;;;;;;;;;;;;;;;;;2107677;28;1541;-82
2021/10/21 07:00:06;;;;;;;;;;;;;;;;;;2099547;28;1687;-84
2021/10/21 07:01:08;;;;;;;;;;;;;;;;;;2099521;28;1744;-82
2021/10/21 07:02:09;;;;;;;;;;;;;;;;;;2099801;28;1287;-82
2021/10/21 07:03:11;;;;;;;;;;;;;;;;;;2099549;28;1266;-82
2021/10/21 07:04:12;;;;;;;;;;;;;;;;;;2107637;28;1306;-82
2021/10/21 07:05:15;;;;;;;;;;;;;;;;;;2107866;28;1735;-82
2021/10/21 07:06:17;;;;;;;;;;;;;;;;;;2107593;28;1535;-82
2021/10/21 07:07:17;;;;;;;;;;;;;;;;;;2104103;28;1851;-82
2021/10/21 07:08:20;;;;;;;;;;;;;;;;;;2099146;28;1671;-82
2021/10/21 07:09:21;;;;;;;;;;;;;;;;;;2107044;28;1570;-82